Time;durP1;ratioP1;P1;durP2;ratioP2;P2;SDS_P1;SDS_P2;PMS_P1;PMS_P2;Temp;Humidity;BMP_temperature;BMP_pressure;BME280_temperature;BME280_humidity;BME280_pressure;Samples;Min_cycle;Max_cycle;Signal;HPM_P1;HPM_P2
2023/03/15 00:01:45;;;;;;;3.58;0.90;;;2.70;99.90;;;;;;4998191;28;20062;-74
2023/03/15 00:04:11;;;;;;;7.18;1.10;;;2.80;99.90;;;;;;5001305;28;20046;-74
2023/03/15 00:06:37;;;;;;;5.28;0.85;;;2.80;99.90;;;;;;5002820;28;20026;-73
2023/03/15 00:09:03;;;;;;;4.68;1.00;;;2.80;99.90;;;;;;5007302;28;20643;-76
2023/03/15 00:11:30;;;;;;;5.50;1.05;;;2.70;99.90;;;;;;4998988;28;20116;-72
2023/03/15 00:13:57;;;;;;;4.53;1.20;;;2.70;99.90;;;;;;4980097;28;20041;-74
2023/03/15 00:16:26;;;;;;;3.63;0.80;;;2.70;99.90;;;;;;4997793;28;20101;-71
2023/03/15 00:18:55;;;;;;;4.15;1.85;;;2.70;99.90;;;;;;4998714;28;20557;-71
2023/03/15 00:21:21;;;;;;;2.63;0.70;;;2.70;99.90;;;;;;5000576;28;20026;-71
2023/03/15 00:23:47;;;;;;;4.85;0.95;;;2.60;99.90;;;;;;5001380;28;20072;-76
2023/03/15 00:26:14;;;;;;;8.65;1.23;;;2.60;99.90;;;;;;4986656;28;20034;-75
2023/03/15 00:28:41;;;;;;;6.57;1.05;;;2.60;99.90;;;;;;5001057;28;20044;-74
2023/03/15 00:31:27;;;;;;;6.90;1.85;;;2.60;99.90;;;;;;5007307;28;20078;-71
2023/03/15 00:33:52;;;;;;;5.07;1.17;;;2.70;99.90;;;;;;5015557;28;20065;-72
2023/03/15 00:36:22;;;;;;;2.90;1.10;;;2.70;99.90;;;;;;5008889;28;20042;-71
2023/03/15 00:38:49;;;;;;;9.98;1.20;;;2.60;99.90;;;;;;5002405;28;20424;-71
2023/03/15 00:41:16;;;;;;;6.40;1.30;;;2.60;99.90;;;;;;5002289;28;20141;-71
2023/03/15 00:43:44;;;;;;;6.20;1.42;;;2.60;99.90;;;;;;5005391;28;20524;-76
2023/03/15 00:46:11;;;;;;;3.10;0.80;;;2.60;99.90;;;;;;5004635;28;20049;-73
2023/03/15 00:48:37;;;;;;;2.75;0.93;;;2.60;99.90;;;;;;5001217;28;20108;-72
2023/03/15 00:51:13;;;;;;;7.55;1.20;;;2.60;99.90;;;;;;5004238;28;20088;-70
2023/03/15 00:53:42;;;;;;;6.18;1.25;;;2.60;99.90;;;;;;4986823;28;20034;-71
2023/03/15 00:56:14;;;;;;;6.38;1.65;;;2.60;99.90;;;;;;5007596;28;20033;-72
2023/03/15 00:58:40;;;;;;;10.98;1.55;;;2.60;99.90;;;;;;5005559;28;20056;-78
2023/03/15 01:01:12;;;;;;;6.70;1.30;;;2.60;99.90;;;;;;4988599;28;20030;-72
2023/03/15 01:03:38;;;;;;;4.55;1.00;;;2.70;99.90;;;;;;5004292;28;20028;-72
2023/03/15 01:06:09;;;;;;;8.38;1.35;;;2.60;99.90;;;;;;5021448;28;20038;-74
2023/03/15 01:08:36;;;;;;;;;;;2.60;99.90;;;;;;5003026;28;20139;-74
2023/03/15 01:11:08;;;;;;;7.25;1.98;;;2.60;99.90;;;;;;5000229;28;19918;-72
2023/03/15 01:13:34;;;;;;;3.42;1.23;;;2.60;99.90;;;;;;5004804;28;20030;-72
2023/03/15 01:16:00;;;;;;;6.28;1.80;;;2.50;99.90;;;;;;5006169;28;20030;-72
2023/03/15 01:18:26;;;;;;;9.18;2.25;;;2.60;99.90;;;;;;5006753;28;20033;-72
2023/03/15 01:20:52;;;;;;;7.28;2.03;;;2.50;99.90;;;;;;5004182;28;20028;-74
2023/03/15 01:23:18;;;;;;;8.00;2.00;;;2.50;99.90;;;;;;5001294;28;20018;-75
2023/03/15 01:25:47;;;;;;;11.13;2.03;;;2.50;99.90;;;;;;5006922;28;20038;-74
2023/03/15 01:28:13;;;;;;;4.03;1.60;;;2.50;99.90;;;;;;5003462;28;20068;-72
2023/03/15 01:30:38;;;;;;;10.05;1.75;;;2.60;99.90;;;;;;5000528;28;20037;-72
2023/03/15 01:33:05;;;;;;;5.20;1.77;;;2.60;99.90;;;;;;5004586;28;20106;-74
2023/03/15 01:35:30;;;;;;;8.45;2.10;;;2.60;99.90;;;;;;4990602;28;20627;-74
2023/03/15 01:37:56;;;;;;;4.72;2.22;;;2.60;99.90;;;;;;5006391;28;20046;-73
2023/03/15 01:40:22;;;;;;;7.95;1.67;;;2.70;99.90;;;;;;5006556;28;20501;-72
2023/03/15 01:43:03;;;;;;;7.28;1.75;;;2.70;99.90;;;;;;5003542;28;20018;-72
2023/03/15 01:45:53;;;;;;;6.95;1.95;;;2.70;99.90;;;;;;5002113;28;20064;-72
2023/03/15 01:48:24;;;;;;;10.27;2.53;;;2.60;99.90;;;;;;5003454;28;20030;-72
2023/03/15 01:50:51;;;;;;;7.50;1.77;;;2.60;99.90;;;;;;5017602;28;20018;-74
2023/03/15 01:53:17;;;;;;;9.50;2.10;;;2.50;99.90;;;;;;5005138;28;20026;-73
2023/03/15 01:55:43;;;;;;;7.38;2.25;;;2.50;99.90;;;;;;5002381;28;20401;-74
2023/03/15 01:58:10;;;;;;;5.07;2.17;;;2.50;99.90;;;;;;5003073;28;20117;-71
2023/03/15 02:00:36;;;;;;;7.50;2.35;;;2.50;99.90;;;;;;5001219;28;20402;-73
2023/03/15 02:03:08;;;;;;;7.38;2.35;;;2.50;99.90;;;;;;4999978;28;20030;-75
2023/03/15 02:05:45;;;;;;;6.63;2.30;;;2.50;99.90;;;;;;5004811;28;20026;-71
2023/03/15 02:08:14;;;;;;;7.07;2.33;;;2.50;99.90;;;;;;4998558;28;20030;-71
2023/03/15 02:10:44;;;;;;;6.15;2.53;;;2.50;99.90;;;;;;4998789;28;20029;-71
2023/03/15 02:13:13;;;;;;;6.65;2.30;;;2.50;99.90;;;;;;5005320;28;20041;-72
2023/03/15 02:15:45;;;;;;;5.68;2.50;;;2.50;99.90;;;;;;5000254;28;20428;-73
2023/03/15 02:18:15;;;;;;;6.50;2.78;;;2.50;99.90;;;;;;5003324;28;20523;-73
2023/03/15 02:21:05;;;;;;;4.33;2.33;;;2.60;99.90;;;;;;5015017;28;20037;-73
2023/03/15 02:23:31;;;;;;;4.82;2.40;;;2.60;99.90;;;;;;5003071;28;20176;-73
2023/03/15 02:26:20;;;;;;;7.57;3.00;;;2.60;99.90;;;;;;4999358;28;20548;-73
2023/03/15 02:28:46;;;;;;;4.68;2.45;;;2.50;99.90;;;;;;4976559;28;20047;-73
2023/03/15 02:31:12;;;;;;;3.83;1.75;;;2.60;99.90;;;;;;5003708;28;20028;-73
2023/03/15 02:33:50;;;;;;;3.08;1.75;;;2.60;99.90;;;;;;4999874;28;20034;-73
2023/03/15 02:36:23;;;;;;;7.15;2.40;;;2.50;99.90;;;;;;5002408;28;20030;-71
2023/03/15 02:38:49;;;;;;;5.82;2.15;;;2.60;99.90;;;;;;5003425;28;20054;-71
2023/03/15 02:41:38;;;;;;;5.05;2.03;;;2.60;99.90;;;;;;5002664;28;20026;-71
2023/03/15 02:44:10;;;;;;;6.82;2.20;;;2.50;99.90;;;;;;5004339;28;20465;-74
2023/03/15 02:46:37;;;;;;;3.67;2.28;;;2.60;99.90;;;;;;5000387;28;20836;-74
2023/03/15 02:49:04;;;;;;;5.65;2.15;;;2.60;99.90;;;;;;5005039;28;20079;-71
2023/03/15 02:51:32;;;;;;;6.40;2.95;;;2.50;99.90;;;;;;5005328;28;20038;-71
2023/03/15 02:53:58;;;;;;;7.40;2.83;;;2.50;99.90;;;;;;5001593;28;20022;-71
2023/03/15 02:56:24;;;;;;;6.50;3.10;;;2.50;99.90;;;;;;4997776;28;20325;-71
2023/03/15 02:58:51;;;;;;;5.30;2.35;;;2.50;99.90;;;;;;4997961;28;20028;-72
2023/03/15 03:01:18;;;;;;;6.90;2.50;;;2.50;99.90;;;;;;4999748;28;20057;-73
2023/03/15 03:03:45;;;;;;;7.82;2.65;;;2.50;99.90;;;;;;5023694;28;20037;-73
2023/03/15 03:06:14;;;;;;;4.38;2.50;;;2.50;99.90;;;;;;4999238;28;21149;-73
2023/03/15 03:08:45;;;;;;;5.18;2.38;;;2.50;99.90;;;;;;5000517;28;20426;-73
2023/03/15 03:11:14;;;;;;;6.93;2.42;;;2.50;99.90;;;;;;5001821;28;20490;-74
2023/03/15 03:13:40;;;;;;;5.13;2.28;;;2.60;99.90;;;;;;4986541;28;20036;-73
2023/03/15 03:16:07;;;;;;;3.78;2.60;;;2.60;99.90;;;;;;5000260;28;20034;-72
2023/03/15 03:18:36;;;;;;;6.28;2.47;;;2.60;99.90;;;;;;5003578;28;20029;-73
2023/03/15 03:21:04;;;;;;;6.95;2.50;;;2.60;99.90;;;;;;5002450;28;20022;-72
2023/03/15 03:23:31;;;;;;;4.82;2.17;;;2.50;99.90;;;;;;5001848;28;20037;-73
2023/03/15 03:25:57;;;;;;;3.28;2.15;;;2.50;99.90;;;;;;5001577;28;20080;-71
2023/03/15 03:28:25;;;;;;;5.38;2.33;;;2.50;99.90;;;;;;5002558;28;20482;-72
2023/03/15 03:30:52;;;;;;;5.68;2.20;;;2.50;99.90;;;;;;5007103;28;20031;-71
2023/03/15 03:33:18;;;;;;;4.85;2.42;;;2.60;99.90;;;;;;5009775;28;20033;-71
2023/03/15 03:35:44;;;;;;;6.45;2.33;;;2.60;99.90;;;;;;5003981;28;20030;-74
2023/03/15 03:38:11;;;;;;;6.60;2.60;;;2.60;99.90;;;;;;5001121;28;20815;-73
2023/03/15 03:40:37;;;;;;;5.65;2.60;;;2.70;99.90;;;;;;5003056;28;20030;-74
2023/03/15 03:43:04;;;;;;;8.20;3.20;;;2.60;99.90;;;;;;5005339;28;20026;-73
2023/03/15 03:45:29;;;;;;;5.60;2.80;;;2.60;99.90;;;;;;5002565;28;20073;-74
2023/03/15 03:47:55;;;;;;;8.70;3.22;;;2.60;99.90;;;;;;5000854;28;20026;-74
2023/03/15 03:50:21;;;;;;;8.68;2.80;;;2.50;99.90;;;;;;5007371;28;20621;-71
2023/03/15 03:52:46;;;;;;;7.97;2.90;;;2.50;99.90;;;;;;5000611;28;20410;-71
2023/03/15 03:55:12;;;;;;;5.28;2.75;;;2.40;99.90;;;;;;5001237;28;20101;-73
2023/03/15 03:57:39;;;;;;;4.95;2.35;;;2.40;99.90;;;;;;5003046;28;20528;-74
2023/03/15 04:00:07;;;;;;;4.32;2.50;;;2.20;99.90;;;;;;5002257;28;20437;-74
2023/03/15 04:02:33;;;;;;;3.97;2.72;;;2.20;99.90;;;;;;5012299;28;20049;-73
2023/03/15 04:04:59;;;;;;;3.70;1.90;;;2.20;99.90;;;;;;4987306;28;20053;-72
2023/03/15 04:07:25;;;;;;;5.07;2.00;;;2.30;99.90;;;;;;5009887;28;20522;-74
2023/03/15 04:09:51;;;;;;;3.58;1.40;;;2.30;99.90;;;;;;5023301;28;20041;-73
2023/03/15 04:12:17;;;;;;;3.15;1.70;;;2.30;99.90;;;;;;5022454;28;20482;-71
2023/03/15 04:14:42;;;;;;;5.00;1.60;;;2.30;99.90;;;;;;5013668;28;20509;-74
2023/03/15 04:17:08;;;;;;;4.13;1.92;;;2.30;99.90;;;;;;5006183;28;20056;-71
2023/03/15 04:19:34;;;;;;;5.20;2.30;;;2.30;99.90;;;;;;5008498;28;20034;-71
2023/03/15 04:22:05;;;;;;;4.95;2.20;;;2.30;99.90;;;;;;5007057;28;20481;-72
2023/03/15 04:24:33;;;;;;;4.53;2.25;;;2.30;99.90;;;;;;4990266;28;20053;-75
2023/03/15 04:26:59;;;;;;;4.45;1.85;;;2.30;99.90;;;;;;5001434;28;20525;-71
2023/03/15 04:29:25;;;;;;;5.03;2.30;;;2.30;99.90;;;;;;5005258;28;20044;-71
2023/03/15 04:31:50;;;;;;;3.58;2.20;;;2.20;99.90;;;;;;4988394;28;20089;-73
2023/03/15 04:34:16;;;;;;;3.38;2.15;;;2.20;99.90;;;;;;5004837;28;20030;-72
2023/03/15 04:36:42;;;;;;;4.57;2.05;;;2.30;99.90;;;;;;5002263;28;20064;-72
2023/03/15 04:39:08;;;;;;;3.47;1.80;;;2.30;99.90;;;;;;5007867;28;20453;-71
2023/03/15 04:41:34;;;;;;;3.88;2.00;;;2.30;99.90;;;;;;5007778;28;20104;-73
2023/03/15 04:44:04;;;;;;;6.22;3.22;;;2.30;99.90;;;;;;5007105;28;20029;-73
2023/03/15 04:46:33;;;;;;;6.53;2.50;;;2.30;99.90;;;;;;5005713;28;20115;-73
2023/03/15 04:49:00;;;;;;;4.88;2.38;;;2.30;99.90;;;;;;5002260;28;20049;-73
2023/03/15 04:51:26;;;;;;;4.60;2.78;;;2.30;99.90;;;;;;5006904;28;20034;-72
2023/03/15 04:53:51;;;;;;;5.00;3.20;;;2.30;99.90;;;;;;5004117;28;20080;-71
2023/03/15 04:56:17;;;;;;;8.23;4.18;;;2.30;99.90;;;;;;5005842;28;20494;-71
2023/03/15 04:58:43;;;;;;;8.80;4.05;;;2.30;99.90;;;;;;5001446;28;20986;-71
2023/03/15 05:01:09;;;;;;;8.85;4.60;;;2.30;99.90;;;;;;5003627;28;20033;-72
2023/03/15 05:03:35;;;;;;;12.05;5.57;;;2.30;99.90;;;;;;5000637;28;20026;-72
2023/03/15 05:06:06;;;;;;;9.23;5.25;;;2.20;99.90;;;;;;5005143;28;20773;-71
2023/03/15 05:08:35;;;;;;;7.03;4.80;;;2.20;99.90;;;;;;5001290;28;20057;-71
2023/03/15 05:11:02;;;;;;;11.82;5.75;;;2.20;99.90;;;;;;5001858;28;20029;-71
2023/03/15 05:13:28;;;;;;;11.63;5.75;;;2.20;99.90;;;;;;5001487;28;20029;-77
2023/03/15 05:15:54;;;;;;;10.38;5.85;;;2.10;99.90;;;;;;5009481;28;20030;-73
2023/03/15 05:18:20;;;;;;;12.25;5.80;;;2.10;99.90;;;;;;5005061;28;20030;-74
2023/03/15 05:20:47;;;;;;;9.13;4.95;;;2.10;99.90;;;;;;4986117;28;20026;-74
2023/03/15 05:23:13;;;;;;;11.18;5.28;;;2.20;99.90;;;;;;5008766;28;20084;-73
2023/03/15 05:25:39;;;;;;;11.27;5.78;;;2.10;99.90;;;;;;4986082;28;20022;-73
2023/03/15 05:28:05;;;;;;;10.98;4.88;;;2.10;99.90;;;;;;5008142;28;20030;-73
2023/03/15 05:30:31;;;;;;;10.85;4.85;;;2.10;99.90;;;;;;4998365;28;20076;-74
2023/03/15 05:32:56;;;;;;;11.73;4.88;;;2.10;99.90;;;;;;5004893;28;20085;-74
2023/03/15 05:35:25;;;;;;;11.10;5.65;;;2.10;99.90;;;;;;5002009;28;20650;-73
2023/03/15 05:37:53;;;;;;;11.82;4.90;;;2.10;99.90;;;;;;5010291;28;20045;-74
2023/03/15 05:40:19;;;;;;;9.18;4.32;;;2.10;99.90;;;;;;5007512;28;20405;-74
2023/03/15 05:42:45;;;;;;;12.15;4.80;;;2.10;99.90;;;;;;5004337;28;20034;-74
2023/03/15 05:45:11;;;;;;;12.95;4.97;;;2.10;99.90;;;;;;5003627;28;20033;-73
2023/03/15 05:47:37;;;;;;;8.02;4.28;;;2.10;99.90;;;;;;5010662;28;20034;-71
2023/03/15 05:50:03;;;;;;;7.95;3.97;;;2.10;99.90;;;;;;5001291;28;20107;-71
2023/03/15 05:52:29;;;;;;;11.30;4.63;;;2.10;99.90;;;;;;5007708;28;20188;-73
2023/03/15 05:54:56;;;;;;;7.93;4.20;;;2.10;99.90;;;;;;5004066;28;20743;-72
2023/03/15 05:57:22;;;;;;;12.55;4.47;;;2.10;99.90;;;;;;5001895;28;20040;-72
2023/03/15 05:59:48;;;;;;;9.68;4.35;;;2.10;99.90;;;;;;5001937;28;20025;-71
2023/03/15 06:02:13;;;;;;;10.90;4.05;;;2.10;99.90;;;;;;4997135;28;20034;-72
2023/03/15 06:04:40;;;;;;;10.63;4.28;;;2.10;99.90;;;;;;5007394;28;20030;-72
2023/03/15 06:07:05;;;;;;;11.90;4.57;;;2.10;99.90;;;;;;5003622;28;20034;-74
2023/03/15 06:09:31;;;;;;;15.13;4.78;;;2.10;99.90;;;;;;5005192;28;20073;-74
2023/03/15 06:11:58;;;;;;;10.35;4.68;;;2.10;99.90;;;;;;5006030;28;20030;-74
2023/03/15 06:14:25;;;;;;;11.02;4.70;;;2.20;99.90;;;;;;5005954;28;20026;-74
2023/03/15 06:16:51;;;;;;;10.00;4.60;;;2.10;99.90;;;;;;5016874;28;20061;-74
2023/03/15 06:19:16;;;;;;;10.05;5.20;;;2.10;99.90;;;;;;5001968;28;20065;-74
2023/03/15 06:21:42;;;;;;;13.82;4.93;;;2.00;99.90;;;;;;5001128;28;20930;-74
2023/03/15 06:24:08;;;;;;;17.75;4.93;;;2.00;99.90;;;;;;4999912;28;20034;-74
2023/03/15 06:26:34;;;;;;;14.32;5.60;;;2.00;99.90;;;;;;5000736;28;20042;-74
2023/03/15 06:29:00;;;;;;;9.75;5.38;;;2.00;99.90;;;;;;5003466;28;20088;-74
2023/03/15 06:31:25;;;;;;;11.15;5.03;;;2.10;99.90;;;;;;4999852;28;20548;-75
2023/03/15 06:33:51;;;;;;;13.90;4.97;;;2.10;99.90;;;;;;5001172;28;20084;-73
2023/03/15 06:36:18;;;;;;;11.52;4.95;;;2.00;99.90;;;;;;5002112;28;20442;-74
2023/03/15 06:38:44;;;;;;;10.45;4.95;;;2.10;99.90;;;;;;5000325;28;20068;-73
2023/03/15 06:41:14;;;;;;;11.40;5.47;;;2.10;99.90;;;;;;5000721;28;20023;-74
2023/03/15 06:43:40;;;;;;;12.85;5.03;;;2.20;99.90;;;;;;5002184;28;20037;-74
2023/03/15 06:46:06;;;;;;;9.90;5.10;;;2.30;99.90;;;;;;4998193;28;20056;-74
2023/03/15 06:48:33;;;;;;;14.50;5.45;;;2.20;99.90;;;;;;5003049;28;20066;-74
2023/03/15 06:50:59;;;;;;;16.00;4.97;;;2.30;99.90;;;;;;4998161;28;20058;-75
2023/03/15 06:53:24;;;;;;;15.38;5.38;;;2.30;99.90;;;;;;4998116;28;20116;-78
2023/03/15 06:55:51;;;;;;;10.32;6.22;;;2.30;99.90;;;;;;4999617;28;20037;-73
2023/03/15 06:58:17;;;;;;;11.57;5.70;;;2.30;99.90;;;;;;5000292;28;20033;-74
2023/03/15 07:00:43;;;;;;;11.27;5.93;;;2.30;99.90;;;;;;4999528;28;20212;-74
2023/03/15 07:03:10;;;;;;;13.05;5.97;;;2.30;99.90;;;;;;4998930;28;21777;-74
2023/03/15 07:05:36;;;;;;;12.27;5.72;;;2.30;99.90;;;;;;4994589;28;20371;-76
2023/03/15 07:08:03;;;;;;;10.88;5.40;;;2.20;99.90;;;;;;4997566;28;20018;-74
2023/03/15 07:10:31;;;;;;;12.15;4.68;;;2.20;99.90;;;;;;5000429;28;20102;-75
2023/03/15 07:12:56;;;;;;;16.95;5.43;;;2.40;99.90;;;;;;4997967;28;20061;-74
2023/03/15 07:15:23;;;;;;;12.55;4.93;;;2.40;99.90;;;;;;5002871;28;20049;-73
2023/03/15 07:17:49;;;;;;;11.07;5.05;;;2.50;99.90;;;;;;4979372;28;20567;-70
2023/03/15 07:20:15;;;;;;;10.00;4.53;;;2.50;99.90;;;;;;4999730;28;20041;-71
2023/03/15 07:22:44;;;;;;;11.85;4.60;;;2.50;99.90;;;;;;4999405;28;20379;-71
2023/03/15 07:25:10;;;;;;;13.00;4.80;;;2.50;99.90;;;;;;4999864;28;20034;-73
2023/03/15 07:27:36;;;;;;;9.90;5.00;;;2.40;99.90;;;;;;4999591;28;20034;-74
2023/03/15 07:30:03;;;;;;;8.82;3.22;;;2.30;99.90;;;;;;4998726;28;20040;-73
2023/03/15 07:32:30;;;;;;;6.43;3.03;;;2.20;99.90;;;;;;4994401;28;20040;-71
2023/03/15 07:34:59;;;;;;;6.30;2.42;;;2.10;99.90;;;;;;4996549;28;20027;-71
2023/03/15 07:37:28;;;;;;;6.57;2.42;;;2.00;99.90;;;;;;4981663;28;20034;-71
2023/03/15 07:39:54;;;;;;;9.23;3.38;;;2.00;99.90;;;;;;4996056;28;20038;-71
2023/03/15 07:42:20;;;;;;;7.45;3.45;;;2.10;99.90;;;;;;4995917;28;20061;-72
2023/03/15 07:44:46;;;;;;;6.78;3.38;;;2.10;99.90;;;;;;4994805;28;20422;-72
2023/03/15 07:47:11;;;;;;;8.25;3.55;;;2.10;99.90;;;;;;4994330;28;20038;-71
2023/03/15 07:49:37;;;;;;;6.10;2.83;;;2.20;99.90;;;;;;5000181;28;20034;-73
2023/03/15 07:52:03;;;;;;;7.28;3.17;;;2.10;99.90;;;;;;5005628;28;20034;-74
2023/03/15 07:54:30;;;;;;;6.10;3.05;;;2.10;99.90;;;;;;5016745;28;20026;-74
2023/03/15 07:56:56;;;;;;;8.15;2.67;;;2.20;99.90;;;;;;4993186;28;20033;-71
2023/03/15 07:59:21;;;;;;;8.07;3.35;;;2.20;99.90;;;;;;4976202;28;20022;-72
2023/03/15 08:01:47;;;;;;;7.25;3.08;;;2.20;99.90;;;;;;4975868;28;21597;-71
2023/03/15 08:04:13;;;;;;;8.10;3.10;;;2.10;99.90;;;;;;4993169;28;20031;-72
2023/03/15 08:06:40;;;;;;;6.85;3.25;;;2.10;99.90;;;;;;4995385;28;20045;-71
2023/03/15 08:09:06;;;;;;;12.85;4.03;;;2.20;99.90;;;;;;4992830;28;20124;-71
2023/03/15 08:11:32;;;;;;;7.10;2.72;;;2.20;99.90;;;;;;4998003;28;20036;-74
2023/03/15 08:13:58;;;;;;;6.60;3.13;;;2.20;99.90;;;;;;4998380;28;20631;-73
2023/03/15 08:16:24;;;;;;;7.13;2.78;;;2.30;99.90;;;;;;4996624;28;20026;-73
2023/03/15 08:18:49;;;;;;;8.50;2.80;;;2.30;99.90;;;;;;4979754;28;20029;-72
2023/03/15 08:21:15;;;;;;;5.65;2.95;;;2.30;99.90;;;;;;4997293;28;20223;-72
2023/03/15 08:23:41;;;;;;;7.68;2.90;;;2.40;99.90;;;;;;4997884;28;20060;-72
2023/03/15 08:26:07;;;;;;;7.72;2.55;;;2.40;99.90;;;;;;4998116;28;20080;-72
2023/03/15 08:28:32;;;;;;;5.15;2.25;;;2.50;99.90;;;;;;5002853;28;20050;-73
2023/03/15 08:30:58;;;;;;;5.28;2.47;;;2.50;99.90;;;;;;5000429;28;20042;-72
2023/03/15 08:33:24;;;;;;;3.28;1.92;;;2.50;99.90;;;;;;5000123;28;20022;-72
2023/03/15 08:35:53;;;;;;;5.00;1.98;;;2.50;99.90;;;;;;4997407;28;20038;-73
2023/03/15 08:38:19;;;;;;;5.25;2.15;;;2.60;99.90;;;;;;4998657;28;20026;-73
2023/03/15 08:40:45;;;;;;;7.60;2.17;;;2.60;99.90;;;;;;4999583;28;20619;-73
2023/03/15 08:43:11;;;;;;;5.13;1.70;;;2.60;99.90;;;;;;5003718;28;20021;-72
2023/03/15 08:45:37;;;;;;;3.80;1.77;;;2.70;99.90;;;;;;5004463;28;20033;-72
2023/03/15 08:48:03;;;;;;;7.68;2.20;;;2.80;99.90;;;;;;5001855;28;20088;-72
2023/03/15 08:50:30;;;;;;;8.48;2.10;;;2.90;99.90;;;;;;4985871;28;20034;-72
2023/03/15 08:52:56;;;;;;;6.20;2.40;;;2.90;99.90;;;;;;4999903;28;20019;-73
2023/03/15 08:55:22;;;;;;;7.22;2.22;;;3.60;99.90;;;;;;5002037;28;20367;-73
2023/03/15 08:57:48;;;;;;;6.63;1.95;;;3.40;99.90;;;;;;5000212;28;20035;-71
2023/03/15 09:00:21;;;;;;;9.13;1.90;;;3.40;99.90;;;;;;4999318;28;20478;-73
2023/03/15 09:02:54;;;;;;;5.75;1.92;;;3.40;99.90;;;;;;4984275;28;20069;-72
2023/03/15 09:05:23;;;;;;;3.33;1.60;;;3.50;99.90;;;;;;5027288;28;20550;-72
2023/03/15 09:07:49;;;;;;;4.10;1.63;;;3.60;99.90;;;;;;5001128;28;20038;-72
2023/03/15 09:10:16;;;;;;;5.63;1.80;;;3.80;99.90;;;;;;5001671;28;20026;-72
2023/03/15 09:12:43;;;;;;;7.55;1.50;;;3.80;99.90;;;;;;4999053;28;20034;-73
2023/03/15 09:15:10;;;;;;;4.03;1.35;;;3.80;99.90;;;;;;5000308;28;20565;-72
2023/03/15 09:17:37;;;;;;;5.57;1.60;;;3.70;99.90;;;;;;5000503;28;20391;-73
2023/03/15 09:20:13;;;;;;;4.97;1.70;;;3.40;99.90;;;;;;4999224;28;20109;-71
2023/03/15 09:22:40;;;;;;;6.55;1.40;;;3.20;99.90;;;;;;5000683;28;20053;-74
2023/03/15 09:25:07;;;;;;;6.55;1.35;;;3.10;99.90;;;;;;4999812;28;20504;-71
2023/03/15 09:27:33;;;;;;;8.32;2.75;;;3.00;99.90;;;;;;5000342;28;20030;-73
2023/03/15 09:29:59;;;;;;;4.32;1.27;;;2.90;99.90;;;;;;4983392;28;20077;-73
2023/03/15 09:32:26;;;;;;;4.35;1.70;;;2.80;99.90;;;;;;5001200;28;20120;-74
2023/03/15 09:34:55;;;;;;;4.80;1.30;;;2.70;99.90;;;;;;4999585;28;20117;-72
2023/03/15 09:37:21;;;;;;;6.25;1.30;;;2.70;99.90;;;;;;4993531;28;20041;-74
2023/03/15 09:39:47;;;;;;;6.20;1.05;;;2.60;99.90;;;;;;5030410;28;20461;-73
2023/03/15 09:42:20;;;;;;;4.15;1.15;;;2.70;99.90;;;;;;5001018;28;20018;-73
2023/03/15 09:44:58;;;;;;;3.50;1.15;;;2.90;99.90;;;;;;5003226;28;20038;-72
2023/03/15 09:47:45;;;;;;;6.72;0.90;;;3.00;99.90;;;;;;5001159;28;20112;-77
2023/03/15 09:50:16;;;;;;;3.47;0.70;;;3.00;99.90;;;;;;4999788;28;20042;-75
2023/03/15 09:52:59;;;;;;;6.00;0.80;;;3.10;99.90;;;;;;4999834;28;20584;-76
2023/03/15 09:55:26;;;;;;;6.22;1.17;;;3.30;99.90;;;;;;4998990;28;20044;-75
2023/03/15 09:58:03;;;;;;;6.10;1.20;;;3.50;99.90;;;;;;4997347;28;20041;-73
2023/03/15 10:00:48;;;;;;;5.18;0.98;;;3.80;99.90;;;;;;5000936;28;20478;-73
2023/03/15 10:03:27;;;;;;;4.20;1.00;;;4.00;99.90;;;;;;5003218;28;20072;-73
2023/03/15 10:05:59;;;;;;;7.15;1.00;;;4.10;99.90;;;;;;5000143;28;20037;-75
2023/03/15 10:08:25;;;;;;;6.55;1.08;;;3.90;99.90;;;;;;5028290;28;20041;-73
2023/03/15 10:10:59;;;;;;;8.18;1.40;;;3.50;99.90;;;;;;4996572;28;20030;-72
2023/03/15 10:13:30;;;;;;;9.30;2.00;;;3.30;99.90;;;;;;4998659;28;20030;-73
2023/03/15 10:15:59;;;;;;;8.85;1.90;;;3.20;99.90;;;;;;5000464;28;20117;-75
2023/03/15 10:18:45;;;;;;;10.57;1.85;;;3.20;99.90;;;;;;5001441;28;20030;-74
2023/03/15 10:21:32;;;;;;;7.88;1.45;;;3.20;99.90;;;;;;5003199;28;20022;-74
2023/03/15 10:24:02;;;;;;;6.50;1.38;;;3.20;99.90;;;;;;5002184;28;20105;-77
2023/03/15 10:26:34;;;;;;;8.85;1.52;;;3.20;99.90;;;;;;4980999;28;20038;-72
2023/03/15 10:29:02;;;;;;;8.27;1.75;;;3.20;99.90;;;;;;5001073;28;20076;-74
2023/03/15 10:31:35;;;;;;;9.45;1.80;;;3.30;99.90;;;;;;4986389;28;20117;-75
2023/03/15 10:34:02;;;;;;;6.97;1.70;;;3.50;99.90;;;;;;5000972;28;20441;-73
2023/03/15 10:36:27;;;;;;;7.25;1.52;;;3.70;99.90;;;;;;5000187;28;20027;-72
2023/03/15 10:38:53;;;;;;;13.27;2.10;;;3.90;99.90;;;;;;4999666;28;20405;-73
2023/03/15 10:41:42;;;;;;;5.10;1.20;;;4.20;99.90;;;;;;4998084;28;20116;-75
2023/03/15 10:44:16;;;;;;;4.80;1.27;;;4.50;99.90;;;;;;4983434;28;20048;-76
2023/03/15 10:46:56;;;;;;;6.72;0.80;;;4.60;99.90;;;;;;4998335;28;20079;-74
2023/03/15 10:49:35;;;;;;;3.25;1.00;;;4.50;99.90;;;;;;4998173;28;20033;-75
2023/03/15 10:52:02;;;;;;;3.95;0.80;;;4.40;99.90;;;;;;5001784;28;20030;-75
2023/03/15 10:54:32;;;;;;;4.32;1.35;;;4.50;99.90;;;;;;4998378;28;20026;-75
2023/03/15 10:57:13;;;;;;;5.88;1.52;;;4.50;99.90;;;;;;4997967;28;20029;-76
2023/03/15 11:00:08;;;;;;;3.00;0.60;;;4.30;99.90;;;;;;4995284;28;20112;-73
2023/03/15 11:02:36;;;;;;;8.32;0.68;;;4.30;99.90;;;;;;4998765;28;20030;-72
2023/03/15 11:05:08;;;;;;;1.42;0.50;;;4.30;99.90;;;;;;4998327;28;20034;-73
2023/03/15 11:07:35;;;;;;;1.27;0.60;;;4.40;99.90;;;;;;5000237;28;20038;-78
2023/03/15 11:10:04;;;;;;;3.55;0.60;;;4.90;99.90;;;;;;4999051;28;20120;-73
2023/03/15 11:12:32;;;;;;;3.42;0.80;;;6.00;99.90;;;;;;4999418;28;20034;-72
2023/03/15 11:15:03;;;;;;;1.60;0.60;;;7.10;99.90;;;;;;4996896;28;20667;-73
2023/03/15 11:17:32;;;;;;;3.25;1.00;;;8.00;99.90;;;;;;4996333;28;20857;-72
2023/03/15 11:20:29;;;;;;;3.05;0.70;;;7.80;99.90;;;;;;4990593;28;20034;-73
2023/03/15 11:22:58;;;;;;;2.05;0.77;;;6.90;99.90;;;;;;4973994;28;20108;-72
2023/03/15 11:25:32;;;;;;;6.10;1.23;;;6.50;99.90;;;;;;4996885;28;20030;-78
2023/03/15 11:27:59;;;;;;;3.45;1.08;;;6.60;99.90;;;;;;5002598;28;20421;-73
2023/03/15 11:30:28;;;;;;;3.42;0.70;;;6.30;99.90;;;;;;5004715;28;20122;-73
2023/03/15 11:32:57;;;;;;;5.50;1.33;;;6.20;99.90;;;;;;4999480;28;20030;-75
2023/03/15 11:35:31;;;;;;;4.28;1.20;;;6.10;99.90;;;;;;5001721;28;20034;-73
2023/03/15 11:38:11;;;;;;;8.98;1.23;;;5.80;99.90;;;;;;5006431;28;20088;-77
2023/03/15 11:40:46;;;;;;;5.30;1.02;;;5.90;99.90;;;;;;5004110;28;20081;-75
2023/03/15 11:43:38;;;;;;;7.68;0.98;;;5.80;99.90;;;;;;4998763;28;20486;-77
2023/03/15 11:46:11;;;;;;;7.30;1.45;;;5.80;99.90;;;;;;5011384;28;20034;-73
2023/03/15 11:48:46;;;;;;;5.68;0.88;;;5.60;99.90;;;;;;4982189;28;20040;-72
2023/03/15 11:51:12;;;;;;;6.25;1.58;;;5.00;99.90;;;;;;4999473;28;20030;-72
2023/03/15 11:53:49;;;;;;;5.10;0.90;;;4.40;99.90;;;;;;4997722;28;20090;-72
2023/03/15 11:56:27;;;;;;;1.85;0.60;;;4.10;99.90;;;;;;4996812;28;20036;-72
2023/03/15 11:59:14;;;;;;;5.07;1.15;;;4.00;99.90;;;;;;4997448;28;20018;-74
2023/03/15 12:02:09;;;;;;;5.63;1.08;;;3.90;99.90;;;;;;5001713;28;20170;-74
2023/03/15 12:04:42;;;;;;;5.75;0.93;;;3.90;99.90;;;;;;4999662;28;20034;-76
2023/03/15 12:07:23;;;;;;;6.75;1.70;;;3.90;99.90;;;;;;4997206;28;20041;-74
2023/03/15 12:09:54;;;;;;;3.78;1.10;;;3.80;99.90;;;;;;4993018;28;20034;-75
2023/03/15 12:12:23;;;;;;;4.95;1.13;;;3.90;99.90;;;;;;4998938;28;21647;-74
2023/03/15 12:15:04;;;;;;;6.15;1.02;;;3.90;99.90;;;;;;4999887;28;20025;-74
2023/03/15 12:17:29;;;;;;;5.28;1.23;;;3.90;99.90;;;;;;4995725;28;20030;-71
2023/03/15 12:20:10;;;;;;;7.07;2.08;;;4.20;99.90;;;;;;5001592;28;20030;-73
2023/03/15 12:22:39;;;;;;;;;;;4.60;99.90;;;;;;5003828;28;20038;-74
2023/03/15 12:25:30;;;;;;;5.00;1.10;;;5.20;99.90;;;;;;4985124;28;20491;-72
2023/03/15 12:27:57;;;;;;;6.15;0.85;;;5.50;99.90;;;;;;4990001;28;20117;-74
2023/03/15 12:30:41;;;;;;;5.50;1.10;;;5.50;99.90;;;;;;5003130;28;20110;-74
2023/03/15 12:33:16;;;;;;;10.10;1.20;;;5.50;99.90;;;;;;5002092;28;20019;-75
2023/03/15 12:35:43;;;;;;;4.85;0.80;;;5.40;99.90;;;;;;5001239;28;20061;-75
2023/03/15 12:38:21;;;;;;;8.80;1.10;;;5.00;99.90;;;;;;5004051;28;20018;-74
2023/03/15 12:40:57;;;;;;;4.43;0.93;;;4.80;99.90;;;;;;5002136;28;20023;-74
2023/03/15 12:43:43;;;;;;;5.82;1.15;;;4.70;99.90;;;;;;4999339;28;20022;-74
2023/03/15 12:46:40;;;;;;;5.32;1.02;;;4.60;99.90;;;;;;5003628;28;20126;-72
2023/03/15 12:49:10;;;;;;;6.65;1.25;;;4.60;99.90;;;;;;5003266;28;20030;-71
2023/03/15 12:52:03;;;;;;;9.85;1.52;;;4.60;99.90;;;;;;5006103;28;20030;-72
2023/03/15 12:54:37;;;;;;;5.60;1.17;;;4.70;99.90;;;;;;5001187;28;20125;-74
2023/03/15 12:57:04;;;;;;;7.70;1.27;;;4.70;99.90;;;;;;4983389;28;20025;-74
2023/03/15 12:59:43;;;;;;;4.55;1.63;;;4.70;99.90;;;;;;5002704;28;20441;-72
2023/03/15 13:02:27;;;;;;;3.30;0.70;;;4.80;99.90;;;;;;4996953;28;20026;-75
2023/03/15 13:05:00;;;;;;;2.70;0.60;;;4.90;99.90;;;;;;5003240;28;20460;-73
2023/03/15 13:08:03;;;;;;;2.85;0.77;;;5.00;99.90;;;;;;5001275;28;20027;-76